Time;durP1;ratioP1;P1;durP2;ratioP2;P2;SDS_P1;SDS_P2;PMS_P1;PMS_P2;Temp;Humidity;BMP_temperature;BMP_pressure;BME280_temperature;BME280_humidity;BME280_pressure;Samples;Min_cycle;Max_cycle;Signal;HPM_P1;HPM_P2
2023/03/09 14:17:32;;;;;;;8.30;7.50;;;;;;;2.58;100.00;96939.56;130731;1280;544863;-87
2023/03/09 14:20:37;;;;;;;8.90;7.40;;;;;;;2.57;100.00;96944.84;131952;1283;22589;-84
2023/03/09 14:23:40;;;;;;;7.80;7.00;;;;;;;2.64;100.00;96949.48;132262;1290;24196;-86
2023/03/09 14:26:43;;;;;;;8.90;7.20;;;;;;;2.71;100.00;96944.28;132757;1282;23048;-87
2023/03/09 14:29:46;;;;;;;6.60;6.00;;;;;;;2.79;100.00;96951.34;132874;1282;179444;-86
2023/03/09 14:32:49;;;;;;;5.40;4.90;;;;;;;2.89;100.00;96963.55;132765;1280;25440;-85
2023/03/09 14:35:51;;;;;;;5.10;4.70;;;;;;;2.96;100.00;96970.64;132319;1280;22541;-84
2023/03/09 14:38:55;;;;;;;9.20;8.30;;;;;;;3.03;100.00;96977.74;132538;1280;22617;-88
2023/03/09 14:41:58;;;;;;;12.00;9.10;;;;;;;3.13;100.00;96976.57;132461;1288;24208;-85
2023/03/09 14:45:01;;;;;;;11.40;8.70;;;;;;;3.21;100.00;96992.29;131931;1288;22544;-87
2023/03/09 14:48:04;;;;;;;11.30;9.30;;;;;;;3.21;100.00;96996.01;132301;1288;23878;-85
2023/03/09 14:51:07;;;;;;;8.30;7.40;;;;;;;3.26;100.00;96997.14;132445;1284;23246;-87
2023/03/09 14:54:10;;;;;;;14.90;12.20;;;;;;;3.32;100.00;97006.70;133648;1284;25252;-92
2023/03/09 14:57:13;;;;;;;14.70;10.80;;;;;;;3.37;100.00;97009.20;133032;1273;22566;-87
2023/03/09 15:00:16;;;;;;;15.10;10.30;;;;;;;3.30;100.00;97015.80;133584;1273;22520;-88
2023/03/09 15:03:19;;;;;;;14.70;9.00;;;;;;;3.25;100.00;97015.95;132731;1273;22662;-84
2023/03/09 15:06:23;;;;;;;13.30;8.50;;;;;;;3.22;100.00;97021.48;132652;1273;22780;-85
2023/03/09 15:09:26;;;;;;;14.50;11.20;;;;;;;3.18;100.00;97017.03;133089;1273;22638;-83
2023/03/09 15:12:28;;;;;;;19.80;14.30;;;;;;;3.20;100.00;97020.87;133188;1272;22531;-86
2023/03/09 15:15:31;;;;;;;24.90;16.30;;;;;;;3.24;100.00;97028.60;132900;1272;25933;-83
2023/03/09 15:18:34;;;;;;;22.20;15.90;;;;;;;3.28;100.00;97032.27;132817;1273;25444;-84
2023/03/09 15:21:37;;;;;;;29.40;18.00;;;;;;;3.30;100.00;97038.30;133456;1275;25423;-84
2023/03/09 15:24:40;;;;;;;20.80;15.10;;;;;;;3.36;100.00;97043.82;134324;1272;22582;-88
2023/03/09 15:27:43;;;;;;;15.50;11.80;;;;;;;3.34;100.00;97046.27;134677;1276;22628;-84
2023/03/09 15:30:46;;;;;;;15.20;11.60;;;;;;;3.26;100.00;97054.84;133545;1269;24257;-87
2023/03/09 15:33:49;;;;;;;16.50;12.70;;;;;;;3.20;100.00;97053.79;133070;1269;23343;-86
2023/03/09 15:36:52;;;;;;;17.80;13.30;;;;;;;3.17;100.00;97064.98;133480;1276;23792;-89
2023/03/09 15:39:55;;;;;;;16.20;11.30;;;;;;;3.16;100.00;97076.20;133344;1273;22570;-90
2023/03/09 15:42:58;;;;;;;17.00;12.70;;;;;;;3.11;100.00;97077.64;133265;1269;24266;-88
2023/03/09 15:46:01;;;;;;;16.30;12.80;;;;;;;3.09;100.00;97084.98;132924;1269;23431;-87
2023/03/09 15:49:04;;;;;;;21.60;13.40;;;;;;;3.04;100.00;97088.52;133092;1269;23899;-88
2023/03/09 15:52:07;;;;;;;25.80;17.60;;;;;;;3.00;100.00;97093.06;133024;1269;22717;-87
2023/03/09 15:55:10;;;;;;;21.80;15.60;;;;;;;2.95;100.00;97088.83;133535;1269;24270;-88
2023/03/09 15:58:13;;;;;;;19.10;13.50;;;;;;;2.91;100.00;97094.95;133667;1269;23178;-86
2023/03/09 16:01:18;;;;;;;20.60;14.80;;;;;;;2.90;100.00;97099.88;133120;1269;22535;-86
2023/03/09 16:04:20;;;;;;;24.80;16.50;;;;;;;2.87;100.00;97104.20;132999;1269;24221;-90
2023/03/09 16:07:23;;;;;;;51.80;31.10;;;;;;;2.82;100.00;97107.97;133098;1273;25383;-87
2023/03/09 16:10:27;;;;;;;24.00;15.80;;;;;;;2.71;100.00;97123.56;133135;1276;22757;-85
2023/03/09 16:13:30;;;;;;;15.50;13.80;;;;;;;2.59;100.00;97126.88;133269;1269;26650;-89
2023/03/09 16:16:33;;;;;;;20.30;13.80;;;;;;;2.49;100.00;97131.27;134203;1276;24321;-89
2023/03/09 16:19:36;;;;;;;18.20;13.80;;;;;;;2.43;100.00;97143.42;133970;1269;25413;-91
2023/03/09 16:22:40;;;;;;;15.70;12.90;;;;;;;2.36;100.00;97147.29;133720;1269;22580;-91
2023/03/09 16:25:43;;;;;;;20.10;13.30;;;;;;;2.31;100.00;97154.77;133444;1269;22872;-91
2023/03/09 16:28:48;;;;;;;19.20;12.70;;;;;;;2.27;100.00;97159.16;134431;1276;22541;-91
2023/03/09 16:32:15;;;;;;;16.80;12.90;;;;;;;2.25;100.00;97164.52;135235;1276;23924;-92
2023/03/09 16:35:18;;;;;;;20.00;14.50;;;;;;;2.23;100.00;97161.08;134040;1269;25307;-88
2023/03/09 16:38:21;;;;;;;24.50;16.80;;;;;;;2.28;100.00;97164.00;133160;1253;22674;-89
2023/03/09 16:41:24;;;;;;;19.20;15.80;;;;;;;2.27;100.00;97175.10;133342;1275;24033;-89
2023/03/09 16:44:27;;;;;;;20.80;13.80;;;;;;;2.25;100.00;97173.23;133472;1275;22593;-89
2023/03/09 16:47:30;;;;;;;15.50;13.40;;;;;;;2.23;100.00;97164.44;133626;1269;26630;-91
2023/03/09 16:50:33;;;;;;;14.20;11.30;;;;;;;2.21;100.00;97166.81;133756;1269;22609;-85
2023/03/09 16:53:36;;;;;;;13.00;10.20;;;;;;;2.18;100.00;97181.26;133687;1269;22644;-88
2023/03/09 16:56:39;;;;;;;16.10;11.50;;;;;;;2.16;100.00;97198.37;133844;1276;25468;-92
2023/03/09 16:59:42;;;;;;;23.40;16.80;;;;;;;2.14;100.00;97201.99;134328;1276;25297;-89
2023/03/09 17:02:45;;;;;;;21.50;16.30;;;;;;;2.14;100.00;97205.35;133359;1276;23334;-92
2023/03/09 17:05:48;;;;;;;21.70;17.30;;;;;;;2.13;100.00;97207.13;133344;1276;22488;-89
2023/03/09 17:08:52;;;;;;;23.50;15.80;;;;;;;2.14;100.00;97225.42;133408;1276;23156;-89
2023/03/09 17:11:55;;;;;;;23.20;17.40;;;;;;;2.16;100.00;97230.63;133387;1276;24274;-85
2023/03/09 17:14:58;;;;;;;28.00;19.50;;;;;;;2.16;100.00;97234.29;134299;1276;22535;-88
2023/03/09 17:18:01;;;;;;;26.10;17.90;;;;;;;2.19;100.00;97233.67;133264;1266;22534;-86
2023/03/09 17:21:04;;;;;;;23.80;17.30;;;;;;;2.18;100.00;97235.13;133136;1276;26504;-87
2023/03/09 17:24:07;;;;;;;22.90;15.70;;;;;;;2.19;100.00;97243.48;133296;1276;23863;-90
2023/03/09 17:27:10;;;;;;;21.10;15.30;;;;;;;2.18;100.00;97243.08;133958;1276;22562;-90
2023/03/09 17:30:13;;;;;;;21.60;14.40;;;;;;;2.18;100.00;97251.66;133742;1276;22541;-85
2023/03/09 17:33:16;;;;;;;20.30;13.30;;;;;;;2.16;100.00;97248.08;135567;1276;22542;-86
2023/03/09 17:36:34;;;;;;;26.90;17.30;;;;;;;2.20;100.00;97243.70;135695;1259;22471;-87
2023/03/09 17:39:38;;;;;;;15.70;12.80;;;;;;;2.17;100.00;97245.79;133685;1276;24257;-88
2023/03/09 17:42:41;;;;;;;27.90;18.60;;;;;;;2.13;100.00;97255.16;133446;1276;25420;-89
2023/03/09 17:45:44;;;;;;;29.40;18.40;;;;;;;2.16;100.00;97266.39;133555;1276;25399;-88
2023/03/09 17:48:47;;;;;;;22.90;14.50;;;;;;;2.19;100.00;97272.41;133348;1275;23404;-88
2023/03/09 17:51:50;;;;;;;16.40;11.50;;;;;;;2.18;100.00;97264.06;133874;1272;25430;-86
2023/03/09 17:54:53;;;;;;;24.80;17.40;;;;;;;2.14;100.00;97276.68;133752;1276;22772;-89
2023/03/09 17:57:56;;;;;;;36.00;23.30;;;;;;;2.14;100.00;97279.20;133971;1276;22520;-89
2023/03/09 18:00:59;;;;;;;97.60;51.90;;;;;;;2.16;100.00;97272.00;133926;1276;24180;-87
2023/03/09 18:04:03;;;;;;;44.40;27.10;;;;;;;2.18;100.00;97273.55;133507;1276;25243;-86
2023/03/09 18:07:06;;;;;;;40.10;27.10;;;;;;;2.16;100.00;97281.36;133043;1272;24372;-88
2023/03/09 18:10:09;;;;;;;36.50;23.50;;;;;;;2.16;100.00;97276.59;133141;1270;23119;-89
2023/03/09 18:13:12;;;;;;;35.80;22.20;;;;;;;2.13;100.00;97277.40;133006;1276;25323;-90
2023/03/09 18:16:15;;;;;;;33.20;20.80;;;;;;;2.09;100.00;97254.05;133002;1272;22628;-89
2023/03/09 18:19:18;;;;;;;37.10;24.30;;;;;;;2.09;100.00;97249.75;133593;1276;25290;-89
2023/03/09 18:22:21;;;;;;;43.30;26.00;;;;;;;2.19;100.00;97258.16;133445;1276;22554;-90
2023/03/09 18:25:24;;;;;;;37.90;24.70;;;;;;;2.23;100.00;97272.30;133037;1276;24273;-89
2023/03/09 18:28:28;;;;;;;26.40;19.30;;;;;;;2.23;100.00;97280.63;133061;1276;22786;-88
2023/03/09 18:31:31;;;;;;;32.40;20.30;;;;;;;2.20;100.00;97291.41;132961;1276;22543;-88
2023/03/09 18:34:35;;;;;;;35.00;23.00;;;;;;;2.22;100.00;97303.94;132957;1276;22534;-87
2023/03/09 18:37:39;;;;;;;24.40;17.10;;;;;;;2.32;100.00;97311.23;133462;1276;22691;-89
2023/03/09 18:40:45;;;;;;;22.10;15.70;;;;;;;2.34;100.00;97306.48;133028;1276;25148;-86
2023/03/09 18:43:48;;;;;;;21.00;13.70;;;;;;;2.35;100.00;97291.92;132923;1275;25351;-87
2023/03/09 18:46:51;;;;;;;20.40;14.00;;;;;;;2.34;100.00;97278.75;132956;1276;22541;-86
2023/03/09 18:49:54;;;;;;;22.90;16.40;;;;;;;2.28;100.00;97273.16;132996;1276;22520;-89
2023/03/09 18:52:57;;;;;;;19.80;15.10;;;;;;;2.29;100.00;97276.42;133438;1275;22527;-89
2023/03/09 18:56:00;;;;;;;24.80;18.20;;;;;;;2.30;100.00;97273.53;132935;1254;22566;-86
2023/03/09 18:59:03;;;;;;;29.90;17.80;;;;;;;2.28;100.00;97290.56;133106;1276;24292;-87
2023/03/09 19:02:06;;;;;;;30.60;19.40;;;;;;;2.29;100.00;97283.20;132991;1276;24212;-86
2023/03/09 19:05:09;;;;;;;35.20;22.70;;;;;;;2.32;100.00;97279.34;132872;1272;22650;-85
2023/03/09 19:08:12;;;;;;;41.90;22.50;;;;;;;2.34;100.00;97282.68;132938;1276;22530;-85
2023/03/09 19:11:16;;;;;;;38.10;24.60;;;;;;;2.34;100.00;97271.73;133107;1272;22527;-87
2023/03/09 19:14:19;;;;;;;31.50;19.50;;;;;;;2.29;100.00;97266.39;132920;1276;22547;-85
2023/03/09 19:17:22;;;;;;;32.40;20.10;;;;;;;2.29;100.00;97269.36;133202;1276;23239;-87
2023/03/09 19:20:24;;;;;;;34.70;21.80;;;;;;;2.23;100.00;97273.33;133053;1276;22643;-87
2023/03/09 19:23:27;;;;;;;33.80;21.90;;;;;;;2.23;100.00;97277.37;133021;1276;22580;-85
2023/03/09 19:26:30;;;;;;;32.20;20.00;;;;;;;2.28;100.00;97280.27;133003;1269;22542;-85
2023/03/09 19:29:34;;;;;;;32.80;20.40;;;;;;;2.29;100.00;97287.91;132728;1276;22676;-85
2023/03/09 19:32:38;;;;;;;32.20;20.30;;;;;;;2.34;100.00;97280.88;132922;1276;22666;-85
2023/03/09 19:35:41;;;;;;;33.10;20.60;;;;;;;2.36;100.00;97258.63;133664;1272;23978;-86
2023/03/09 19:38:44;;;;;;;32.20;20.00;;;;;;;2.38;100.00;97249.10;133460;1276;25242;-87
2023/03/09 19:41:47;;;;;;;36.90;20.70;;;;;;;2.38;100.00;97250.95;133826;1276;24212;-86
2023/03/09 19:44:50;;;;;;;34.50;20.90;;;;;;;2.40;100.00;97257.34;133836;1276;22524;-86
2023/03/09 19:47:53;;;;;;;30.60;20.20;;;;;;;2.44;100.00;97260.97;133829;1276;22496;-85
2023/03/09 19:50:56;;;;;;;30.00;18.50;;;;;;;2.43;100.00;97277.13;133690;1272;22613;-86
2023/03/09 19:53:59;;;;;;;31.30;19.90;;;;;;;2.43;100.00;97278.25;133736;1275;23858;-86
2023/03/09 19:57:02;;;;;;;34.00;20.90;;;;;;;2.48;100.00;97279.72;133729;1276;22763;-85
2023/03/09 20:00:05;;;;;;;35.00;20.10;;;;;;;2.48;100.00;97286.01;133256;1253;22524;-84
2023/03/09 20:03:08;;;;;;;41.50;24.30;;;;;;;2.48;100.00;97288.68;133180;1276;22475;-85
2023/03/09 20:06:11;;;;;;;38.80;23.60;;;;;;;2.47;100.00;97293.23;133393;1276;22586;-86
2023/03/09 20:09:14;;;;;;;39.30;22.10;;;;;;;2.45;100.00;97293.39;133144;1273;22521;-86
2023/03/09 20:12:22;;;;;;;32.80;20.80;;;;;;;2.49;100.00;97289.95;132986;1272;22629;-85
2023/03/09 20:15:25;;;;;;;34.70;22.10;;;;;;;2.51;100.00;97284.20;133127;1276;25303;-84
2023/03/09 20:18:28;;;;;;;37.70;22.40;;;;;;;2.53;100.00;97282.77;133024;1276;22529;-84
2023/03/09 20:21:31;;;;;;;33.50;19.50;;;;;;;2.55;100.00;97281.82;133065;1276;22591;-85
2023/03/09 20:24:34;;;;;;;30.70;19.60;;;;;;;2.55;100.00;97279.59;133097;1276;25385;-86
2023/03/09 20:27:37;;;;;;;40.30;23.20;;;;;;;2.55;100.00;97278.00;133074;1276;22521;-86
2023/03/09 20:30:40;;;;;;;40.40;23.10;;;;;;;2.55;100.00;97279.37;133036;1276;22564;-86
2023/03/09 20:33:43;;;;;;;41.50;24.00;;;;;;;2.56;100.00;97278.65;133212;1276;23018;-85
2023/03/09 20:36:46;;;;;;;43.50;25.30;;;;;;;2.55;100.00;97281.60;134413;1276;22539;-85
2023/03/09 20:39:52;;;;;;;44.80;26.50;;;;;;;2.53;100.00;97283.40;134079;1269;22602;-86
2023/03/09 20:42:55;;;;;;;43.80;25.10;;;;;;;2.53;100.00;97284.09;133616;1276;22576;-84
2023/03/09 20:45:58;;;;;;;39.10;23.50;;;;;;;2.59;100.00;97286.68;133087;1276;22536;-85
2023/03/09 20:49:01;;;;;;;39.10;24.80;;;;;;;2.61;100.00;97283.34;133138;1276;25984;-85
2023/03/09 20:52:04;;;;;;;42.80;27.30;;;;;;;2.61;100.00;97287.25;133158;1275;22489;-88
2023/03/09 20:55:07;;;;;;;46.80;27.80;;;;;;;2.67;100.00;97283.02;133190;1276;25223;-86
2023/03/09 20:58:10;;;;;;;45.10;25.70;;;;;;;2.73;100.00;97278.38;133489;1276;22487;-85
2023/03/09 21:01:13;;;;;;;42.00;26.40;;;;;;;2.77;100.00;97267.81;133267;1276;22529;-86
2023/03/09 21:04:16;;;;;;;46.30;25.30;;;;;;;2.79;100.00;97270.67;133027;1276;25582;-85
2023/03/09 21:07:19;;;;;;;44.40;26.20;;;;;;;2.79;100.00;97274.10;133031;1276;22626;-87
2023/03/09 21:10:22;;;;;;;40.10;24.70;;;;;;;2.83;100.00;97276.42;133014;1276;25227;-86
2023/03/09 21:13:25;;;;;;;48.10;27.00;;;;;;;2.82;100.00;97275.83;133017;1276;22543;-87
2023/03/09 21:16:28;;;;;;;52.80;26.40;;;;;;;2.78;100.00;97277.11;132967;1276;22536;-88
2023/03/09 21:19:34;;;;;;;41.70;23.50;;;;;;;2.77;100.00;97276.02;133004;1269;22576;-85
2023/03/09 21:22:37;;;;;;;41.60;24.70;;;;;;;2.78;100.00;97250.61;133090;1276;22648;-86
2023/03/09 21:25:41;;;;;;;44.20;24.30;;;;;;;2.71;100.00;97250.53;132985;1276;22575;-87
2023/03/09 21:28:44;;;;;;;44.40;23.90;;;;;;;2.65;100.00;97262.21;133015;1275;22693;-86
2023/03/09 21:31:47;;;;;;;38.90;23.50;;;;;;;2.61;100.00;97256.75;132995;1275;23372;-86
2023/03/09 21:34:50;;;;;;;38.00;23.20;;;;;;;2.60;100.00;97256.38;132997;1276;25246;-87
2023/03/09 21:37:53;;;;;;;41.10;23.60;;;;;;;2.56;100.00;97255.41;132948;1276;22699;-85
2023/03/09 21:40:57;;;;;;;37.80;23.20;;;;;;;2.56;100.00;97241.61;133058;1276;22540;-87
2023/03/09 21:44:00;;;;;;;40.60;23.50;;;;;;;2.54;100.00;97245.90;133016;1276;25264;-86
2023/03/09 21:47:03;;;;;;;38.60;22.50;;;;;;;2.53;100.00;97240.55;133029;1276;22571;-85
2023/03/09 21:50:06;;;;;;;42.30;23.60;;;;;;;2.51;100.00;97239.01;133010;1276;25422;-86
2023/03/09 21:53:09;;;;;;;39.80;23.50;;;;;;;2.52;100.00;97236.48;132696;1276;22524;-87
2023/03/09 21:56:12;;;;;;;40.90;24.70;;;;;;;2.54;100.00;97234.35;132984;1276;25409;-86
2023/03/09 21:59:15;;;;;;;45.20;25.30;;;;;;;2.56;100.00;97222.00;133023;1276;22484;-87
2023/03/09 22:02:20;;;;;;;52.80;30.00;;;;;;;2.59;100.00;97214.48;133051;1276;24610;-87
2023/03/09 22:05:22;;;;;;;50.40;30.30;;;;;;;2.61;100.00;97238.86;132999;1272;25590;-86
2023/03/09 22:08:25;;;;;;;57.60;30.70;;;;;;;2.62;100.00;97224.77;132910;1276;24256;-86
2023/03/09 22:11:29;;;;;;;54.60;28.80;;;;;;;2.54;100.00;97223.02;133087;1275;24215;-86
2023/03/09 22:14:32;;;;;;;51.90;30.20;;;;;;;2.53;100.00;97222.95;132846;1276;26666;-85
2023/03/09 22:17:35;;;;;;;55.00;30.50;;;;;;;2.54;100.00;97208.17;132923;1276;22525;-86
2023/03/09 22:20:38;;;;;;;50.80;29.00;;;;;;;2.56;100.00;97212.97;132835;1276;22649;-86
2023/03/09 22:23:41;;;;;;;41.10;24.90;;;;;;;2.59;100.00;97203.91;132858;1276;24718;-86
2023/03/09 22:26:44;;;;;;;45.20;27.20;;;;;;;2.60;100.00;97190.25;132865;1276;25242;-88
2023/03/09 22:29:47;;;;;;;49.00;28.40;;;;;;;2.62;100.00;97188.36;132950;1276;22556;-87
2023/03/09 22:32:50;;;;;;;50.10;28.90;;;;;;;2.64;100.00;97187.64;132925;1272;25339;-87
2023/03/09 22:35:53;;;;;;;51.50;27.70;;;;;;;2.67;100.00;97190.81;133346;1276;24250;-86
2023/03/09 22:38:56;;;;;;;49.10;28.70;;;;;;;2.69;100.00;97186.92;134106;1276;22654;-86
2023/03/09 22:41:59;;;;;;;47.30;28.50;;;;;;;2.71;100.00;97182.45;133371;1276;22534;-87
2023/03/09 22:45:02;;;;;;;57.60;31.90;;;;;;;2.71;100.00;97172.73;133344;1275;23233;-85
2023/03/09 22:48:05;;;;;;;58.90;31.60;;;;;;;2.71;100.00;97167.98;132899;1276;24289;-85
2023/03/09 22:51:07;;;;;;;52.00;31.20;;;;;;;2.75;100.00;97169.77;133087;1272;22595;-85
2023/03/09 22:54:10;;;;;;;56.50;29.70;;;;;;;2.82;100.00;97164.52;133203;1276;24221;-86
2023/03/09 22:57:13;;;;;;;51.20;29.70;;;;;;;2.85;100.00;97165.54;133218;1253;22527;-85
2023/03/09 23:00:16;;;;;;;50.50;30.80;;;;;;;2.88;100.00;97167.85;133204;1276;23831;-86
2023/03/09 23:03:20;;;;;;;52.90;28.20;;;;;;;2.88;100.00;97168.57;133244;1276;25247;-86
2023/03/09 23:06:23;;;;;;;52.00;28.20;;;;;;;2.88;100.00;97166.85;133351;1272;22510;-86
2023/03/09 23:09:26;;;;;;;44.60;26.70;;;;;;;2.88;100.00;97161.29;133149;1276;24273;-84
2023/03/09 23:12:28;;;;;;;52.10;28.70;;;;;;;2.86;100.00;97152.26;133010;1276;24367;-87
2023/03/09 23:15:31;;;;;;;51.30;28.20;;;;;;;2.81;100.00;97146.16;133113;1276;22542;-87
2023/03/09 23:18:35;;;;;;;49.00;25.90;;;;;;;2.79;100.00;97139.52;132956;1276;22528;-85
2023/03/09 23:21:38;;;;;;;52.60;28.10;;;;;;;2.76;100.00;97144.13;132968;1276;22539;-85
2023/03/09 23:24:43;;;;;;;49.60;29.90;;;;;;;2.74;100.00;97137.09;132941;1276;22575;-87
2023/03/09 23:27:46;;;;;;;52.30;30.00;;;;;;;2.75;100.00;97133.73;132859;1276;22741;-87
2023/03/09 23:30:49;;;;;;;45.80;28.30;;;;;;;2.75;100.00;97127.33;132874;1276;22891;-86
2023/03/09 23:33:52;;;;;;;49.10;28.30;;;;;;;2.77;100.00;97110.94;132892;1272;22598;-87
2023/03/09 23:36:55;;;;;;;42.90;25.10;;;;;;;2.79;100.00;97105.00;132969;1276;22644;-88
2023/03/09 23:39:57;;;;;;;52.60;28.50;;;;;;;2.82;100.00;97109.45;132907;1276;22654;-86
2023/03/09 23:43:00;;;;;;;45.30;26.20;;;;;;;2.85;100.00;97109.58;132929;1276;24030;-87
2023/03/09 23:46:03;;;;;;;44.10;26.90;;;;;;;2.87;100.00;97113.48;132961;1276;22608;-87
2023/03/09 23:49:06;;;;;;;39.10;24.70;;;;;;;2.90;100.00;97116.74;133103;1276;22538;-87
2023/03/09 23:52:09;;;;;;;43.90;26.30;;;;;;;2.92;100.00;97093.98;132996;1276;22533;-87
2023/03/09 23:55:12;;;;;;;48.50;26.90;;;;;;;2.92;100.00;97101.08;133062;1276;24070;-87
2023/03/09 23:58:14;;;;;;;39.20;23.80;;;;;;;2.91;100.00;97098.50;133211;1276;24363;-87
